sensor_id;sensor_type;location;lat;lon;timestamp;P1;durP1;ratioP1;P2;durP2;ratioP2
53521;SDS011;39398;48.382;9.802;2023-06-10T00:02:41;9.95;;;6.95;;
53521;SDS011;39398;48.382;9.802;2023-06-10T00:07:43;8.05;;;5.68;;
53521;SDS011;39398;48.382;9.802;2023-06-10T00:12:46;9.65;;;6.82;;
53521;SDS011;39398;48.382;9.802;2023-06-10T00:17:47;8.60;;;6.10;;
53521;SDS011;39398;48.382;9.802;2023-06-10T00:22:49;11.05;;;6.78;;
53521;SDS011;39398;48.382;9.802;2023-06-10T00:27:52;8.63;;;6.57;;
53521;SDS011;39398;48.382;9.802;2023-06-10T00:32:54;7.15;;;4.95;;
53521;SDS011;39398;48.382;9.802;2023-06-10T00:37:55;8.27;;;6.07;;
53521;SDS011;39398;48.382;9.802;2023-06-10T00:42:58;12.90;;;6.78;;
53521;SDS011;39398;48.382;9.802;2023-06-10T00:48:00;10.80;;;7.00;;
53521;SDS011;39398;48.382;9.802;2023-06-10T00:53:03;8.48;;;5.35;;
53521;SDS011;39398;48.382;9.802;2023-06-10T00:58:06;9.15;;;5.72;;
53521;SDS011;39398;48.382;9.802;2023-06-10T01:03:08;7.43;;;5.93;;
53521;SDS011;39398;48.382;9.802;2023-06-10T01:08:13;10.73;;;5.07;;
53521;SDS011;39398;48.382;9.802;2023-06-10T01:13:22;7.78;;;5.22;;
53521;SDS011;39398;48.382;9.802;2023-06-10T01:18:29;7.60;;;5.55;;
53521;SDS011;39398;48.382;9.802;2023-06-10T01:23:32;8.75;;;6.40;;
53521;SDS011;39398;48.382;9.802;2023-06-10T01:28:36;6.35;;;4.85;;
53521;SDS011;39398;48.382;9.802;2023-06-10T01:33:45;7.00;;;5.72;;
53521;SDS011;39398;48.382;9.802;2023-06-10T01:38:51;9.10;;;6.32;;
53521;SDS011;39398;48.382;9.802;2023-06-10T01:43:54;12.60;;;6.18;;
53521;SDS011;39398;48.382;9.802;2023-06-10T01:48:56;8.73;;;6.07;;
53521;SDS011;39398;48.382;9.802;2023-06-10T01:53:59;9.88;;;7.28;;
53521;SDS011;39398;48.382;9.802;2023-06-10T01:59:01;8.23;;;5.55;;
53521;SDS011;39398;48.382;9.802;2023-06-10T02:04:02;8.73;;;5.45;;
53521;SDS011;39398;48.382;9.802;2023-06-10T02:09:06;8.30;;;6.30;;
53521;SDS011;39398;48.382;9.802;2023-06-10T02:14:07;9.30;;;7.32;;
53521;SDS011;39398;48.382;9.802;2023-06-10T02:19:09;9.15;;;6.60;;
53521;SDS011;39398;48.382;9.802;2023-06-10T02:24:12;6.72;;;4.75;;
53521;SDS011;39398;48.382;9.802;2023-06-10T02:29:14;7.03;;;4.85;;
53521;SDS011;39398;48.382;9.802;2023-06-10T02:34:15;8.63;;;5.95;;
53521;SDS011;39398;48.382;9.802;2023-06-10T02:39:18;8.52;;;5.55;;
53521;SDS011;39398;48.382;9.802;2023-06-10T02:44:20;7.95;;;6.03;;
53521;SDS011;39398;48.382;9.802;2023-06-10T02:49:22;12.15;;;5.95;;
53521;SDS011;39398;48.382;9.802;2023-06-10T02:54:25;10.45;;;6.50;;
53521;SDS011;39398;48.382;9.802;2023-06-10T02:59:27;12.40;;;7.75;;
53521;SDS011;39398;48.382;9.802;2023-06-10T03:04:28;9.90;;;5.15;;
53521;SDS011;39398;48.382;9.802;2023-06-10T03:09:32;9.95;;;6.18;;
53521;SDS011;39398;48.382;9.802;2023-06-10T03:14:33;8.90;;;5.70;;
53521;SDS011;39398;48.382;9.802;2023-06-10T03:19:35;8.73;;;5.40;;
53521;SDS011;39398;48.382;9.802;2023-06-10T03:24:38;11.18;;;6.00;;
53521;SDS011;39398;48.382;9.802;2023-06-10T03:29:40;9.80;;;4.85;;
53521;SDS011;39398;48.382;9.802;2023-06-10T03:34:41;10.27;;;5.07;;
53521;SDS011;39398;48.382;9.802;2023-06-10T03:39:45;8.63;;;6.15;;
53521;SDS011;39398;48.382;9.802;2023-06-10T03:44:47;8.10;;;5.63;;
53521;SDS011;39398;48.382;9.802;2023-06-10T03:49:49;12.52;;;8.10;;
53521;SDS011;39398;48.382;9.802;2023-06-10T03:54:52;11.38;;;7.55;;
53521;SDS011;39398;48.382;9.802;2023-06-10T03:59:53;12.75;;;8.85;;
53521;SDS011;39398;48.382;9.802;2023-06-10T04:04:55;12.40;;;8.38;;
53521;SDS011;39398;48.382;9.802;2023-06-10T04:09:58;13.35;;;8.43;;
53521;SDS011;39398;48.382;9.802;2023-06-10T04:15:00;11.60;;;7.40;;
53521;SDS011;39398;48.382;9.802;2023-06-10T04:20:02;12.77;;;7.25;;
53521;SDS011;39398;48.382;9.802;2023-06-10T04:25:05;10.18;;;7.65;;
53521;SDS011;39398;48.382;9.802;2023-06-10T04:30:07;9.50;;;7.07;;
53521;SDS011;39398;48.382;9.802;2023-06-10T04:35:11;12.05;;;8.23;;
53521;SDS011;39398;48.382;9.802;2023-06-10T04:40:14;13.15;;;7.07;;
53521;SDS011;39398;48.382;9.802;2023-06-10T04:45:16;9.88;;;7.07;;
53521;SDS011;39398;48.382;9.802;2023-06-10T04:50:17;10.48;;;6.30;;
53521;SDS011;39398;48.382;9.802;2023-06-10T04:55:20;9.55;;;6.35;;
53521;SDS011;39398;48.382;9.802;2023-06-10T05:00:22;8.90;;;6.53;;
53521;SDS011;39398;48.382;9.802;2023-06-10T05:05:24;13.65;;;7.05;;
53521;SDS011;39398;48.382;9.802;2023-06-10T05:10:27;12.70;;;8.63;;
53521;SDS011;39398;48.382;9.802;2023-06-10T05:15:28;10.82;;;6.88;;
53521;SDS011;39398;48.382;9.802;2023-06-10T05:20:30;9.95;;;7.43;;
53521;SDS011;39398;48.382;9.802;2023-06-10T05:25:33;10.35;;;7.43;;
53521;SDS011;39398;48.382;9.802;2023-06-10T05:30:35;10.85;;;7.22;;
53521;SDS011;39398;48.382;9.802;2023-06-10T05:35:36;5.72;;;4.15;;
53521;SDS011;39398;48.382;9.802;2023-06-10T05:40:39;9.48;;;6.93;;
53521;SDS011;39398;48.382;9.802;2023-06-10T05:45:41;9.68;;;6.82;;
53521;SDS011;39398;48.382;9.802;2023-06-10T05:50:43;9.98;;;6.72;;
53521;SDS011;39398;48.382;9.802;2023-06-10T05:55:46;8.82;;;6.53;;
53521;SDS011;39398;48.382;9.802;2023-06-10T06:00:48;8.80;;;6.53;;
53521;SDS011;39398;48.382;9.802;2023-06-10T06:05:49;10.57;;;6.78;;
53521;SDS011;39398;48.382;9.802;2023-06-10T06:10:52;9.70;;;7.70;;
53521;SDS011;39398;48.382;9.802;2023-06-10T06:15:54;8.57;;;6.15;;
53521;SDS011;39398;48.382;9.802;2023-06-10T06:20:56;9.55;;;7.13;;
53521;SDS011;39398;48.382;9.802;2023-06-10T06:25:59;8.30;;;6.70;;
53521;SDS011;39398;48.382;9.802;2023-06-10T06:31:00;9.32;;;7.50;;
53521;SDS011;39398;48.382;9.802;2023-06-10T06:36:02;10.88;;;7.05;;
53521;SDS011;39398;48.382;9.802;2023-06-10T06:41:05;9.13;;;7.57;;
53521;SDS011;39398;48.382;9.802;2023-06-10T06:46:07;9.02;;;7.15;;
53521;SDS011;39398;48.382;9.802;2023-06-10T06:51:09;9.07;;;7.50;;
53521;SDS011;39398;48.382;9.802;2023-06-10T06:56:12;9.27;;;6.97;;
53521;SDS011;39398;48.382;9.802;2023-06-10T07:01:13;9.23;;;7.68;;
53521;SDS011;39398;48.382;9.802;2023-06-10T07:06:15;10.85;;;7.43;;
53521;SDS011;39398;48.382;9.802;2023-06-10T07:11:18;8.48;;;5.43;;
53521;SDS011;39398;48.382;9.802;2023-06-10T07:16:20;8.45;;;6.90;;
53521;SDS011;39398;48.382;9.802;2023-06-10T07:21:21;9.98;;;5.07;;
53521;SDS011;39398;48.382;9.802;2023-06-10T07:26:24;10.23;;;6.68;;
53521;SDS011;39398;48.382;9.802;2023-06-10T07:31:26;6.60;;;5.15;;
53521;SDS011;39398;48.382;9.802;2023-06-10T07:36:28;8.10;;;6.05;;
53521;SDS011;39398;48.382;9.802;2023-06-10T07:41:31;9.68;;;5.47;;
53521;SDS011;39398;48.382;9.802;2023-06-10T07:46:32;7.65;;;5.70;;
53521;SDS011;39398;48.382;9.802;2023-06-10T07:51:34;9.02;;;6.65;;
53521;SDS011;39398;48.382;9.802;2023-06-10T07:56:37;3.65;;;3.35;;
53521;SDS011;39398;48.382;9.802;2023-06-10T08:01:39;6.90;;;5.05;;
53521;SDS011;39398;48.382;9.802;2023-06-10T08:06:41;5.60;;;4.50;;
53521;SDS011;39398;48.382;9.802;2023-06-10T08:11:44;6.60;;;5.40;;
53521;SDS011;39398;48.382;9.802;2023-06-10T08:16:47;7.80;;;4.13;;
53521;SDS011;39398;48.382;9.802;2023-06-10T08:21:49;6.65;;;5.35;;
53521;SDS011;39398;48.382;9.802;2023-06-10T08:26:52;6.70;;;5.40;;
53521;SDS011;39398;48.382;9.802;2023-06-10T08:31:54;5.70;;;5.10;;
53521;SDS011;39398;48.382;9.802;2023-06-10T08:36:56;5.63;;;3.95;;
53521;SDS011;39398;48.382;9.802;2023-06-10T08:42:09;5.53;;;5.00;;
53521;SDS011;39398;48.382;9.802;2023-06-10T08:47:18;5.85;;;4.93;;
53521;SDS011;39398;48.382;9.802;2023-06-10T08:52:21;6.47;;;5.28;;
53521;SDS011;39398;48.382;9.802;2023-06-10T08:57:24;6.00;;;5.00;;
53521;SDS011;39398;48.382;9.802;2023-06-10T09:02:26;6.93;;;5.20;;
53521;SDS011;39398;48.382;9.802;2023-06-10T09:07:29;6.53;;;5.15;;
53521;SDS011;39398;48.382;9.802;2023-06-10T09:12:33;6.70;;;5.10;;
53521;SDS011;39398;48.382;9.802;2023-06-10T09:17:35;5.70;;;3.70;;
53521;SDS011;39398;48.382;9.802;2023-06-10T09:22:37;4.60;;;3.78;;
53521;SDS011;39398;48.382;9.802;2023-06-10T09:27:46;6.28;;;4.90;;
53521;SDS011;39398;48.382;9.802;2023-06-10T09:32:49;4.80;;;3.78;;
53521;SDS011;39398;48.382;9.802;2023-06-10T09:37:51;5.63;;;5.07;;
53521;SDS011;39398;48.382;9.802;2023-06-10T09:42:55;8.65;;;5.82;;
53521;SDS011;39398;48.382;9.802;2023-06-10T09:47:57;5.10;;;4.03;;
53521;SDS011;39398;48.382;9.802;2023-06-10T09:52:59;6.10;;;3.40;;
53521;SDS011;39398;48.382;9.802;2023-06-10T09:58:02;5.85;;;4.72;;
53521;SDS011;39398;48.382;9.802;2023-06-10T10:03:05;7.07;;;4.57;;
53521;SDS011;39398;48.382;9.802;2023-06-10T10:08:07;7.45;;;4.18;;
53521;SDS011;39398;48.382;9.802;2023-06-10T10:13:10;6.47;;;5.30;;
53521;SDS011;39398;48.382;9.802;2023-06-10T10:18:12;4.75;;;4.30;;
53521;SDS011;39398;48.382;9.802;2023-06-10T10:28:24;5.32;;;4.82;;
53521;SDS011;39398;48.382;9.802;2023-06-10T10:33:36;4.55;;;4.07;;
53521;SDS011;39398;48.382;9.802;2023-06-10T10:38:43;2.90;;;2.60;;
53521;SDS011;39398;48.382;9.802;2023-06-10T10:43:54;5.20;;;4.10;;
53521;SDS011;39398;48.382;9.802;2023-06-10T10:48:56;4.68;;;3.63;;
53521;SDS011;39398;48.382;9.802;2023-06-10T10:54:12;4.10;;;3.80;;
53521;SDS011;39398;48.382;9.802;2023-06-10T10:59:15;4.82;;;4.38;;
53521;SDS011;39398;48.382;9.802;2023-06-10T11:04:17;3.50;;;3.20;;
53521;SDS011;39398;48.382;9.802;2023-06-10T11:09:26;4.30;;;3.30;;
53521;SDS011;39398;48.382;9.802;2023-06-10T11:14:30;4.45;;;3.70;;
53521;SDS011;39398;48.382;9.802;2023-06-10T11:19:32;4.13;;;3.72;;
53521;SDS011;39398;48.382;9.802;2023-06-10T11:24:35;4.70;;;3.10;;
53521;SDS011;39398;48.382;9.802;2023-06-10T11:29:38;3.08;;;2.78;;
53521;SDS011;39398;48.382;9.802;2023-06-10T11:34:40;5.60;;;3.30;;
53521;SDS011;39398;48.382;9.802;2023-06-10T11:39:41;4.45;;;4.05;;
53521;SDS011;39398;48.382;9.802;2023-06-10T11:44:48;4.82;;;3.90;;
53521;SDS011;39398;48.382;9.802;2023-06-10T11:49:55;6.35;;;4.30;;
53521;SDS011;39398;48.382;9.802;2023-06-10T11:54:57;4.18;;;3.75;;
53521;SDS011;39398;48.382;9.802;2023-06-10T12:00:04;6.18;;;3.97;;
53521;SDS011;39398;48.382;9.802;2023-06-10T12:05:10;5.15;;;4.65;;
53521;SDS011;39398;48.382;9.802;2023-06-10T12:10:13;4.53;;;4.13;;
53521;SDS011;39398;48.382;9.802;2023-06-10T12:15:29;4.65;;;4.22;;
53521;SDS011;39398;48.382;9.802;2023-06-10T12:20:31;5.00;;;4.50;;
53521;SDS011;39398;48.382;9.802;2023-06-10T12:25:34;5.40;;;4.90;;
53521;SDS011;39398;48.382;9.802;2023-06-10T12:30:37;4.72;;;4.25;;
53521;SDS011;39398;48.382;9.802;2023-06-10T12:35:38;7.68;;;4.75;;
53521;SDS011;39398;48.382;9.802;2023-06-10T12:40:49;4.80;;;4.40;;
53521;SDS011;39398;48.382;9.802;2023-06-10T12:45:52;5.45;;;4.30;;
53521;SDS011;39398;48.382;9.802;2023-06-10T12:50:54;7.50;;;4.63;;
53521;SDS011;39398;48.382;9.802;2023-06-10T12:55:57;5.90;;;4.75;;
53521;SDS011;39398;48.382;9.802;2023-06-10T13:01:00;5.25;;;4.63;;
53521;SDS011;39398;48.382;9.802;2023-06-10T13:06:02;5.07;;;4.28;;
53521;SDS011;39398;48.382;9.802;2023-06-10T13:11:04;5.97;;;4.63;;
53521;SDS011;39398;48.382;9.802;2023-06-10T13:16:07;5.50;;;5.00;;
53521;SDS011;39398;48.382;9.802;2023-06-10T13:21:08;5.72;;;5.22;;
53521;SDS011;39398;48.382;9.802;2023-06-10T13:26:10;4.97;;;4.57;;
53521;SDS011;39398;48.382;9.802;2023-06-10T13:31:13;7.53;;;4.97;;
53521;SDS011;39398;48.382;9.802;2023-06-10T13:36:15;5.10;;;4.53;;
53521;SDS011;39398;48.382;9.802;2023-06-10T13:41:16;5.10;;;4.60;;
53521;SDS011;39398;48.382;9.802;2023-06-10T13:46:19;10.88;;;5.88;;
53521;SDS011;39398;48.382;9.802;2023-06-10T13:51:21;6.75;;;5.13;;
53521;SDS011;39398;48.382;9.802;2023-06-10T13:56:23;4.85;;;3.67;;
53521;SDS011;39398;48.382;9.802;2023-06-10T14:01:26;6.50;;;4.95;;
53521;SDS011;39398;48.382;9.802;2023-06-10T14:06:28;5.55;;;4.47;;
53521;SDS011;39398;48.382;9.802;2023-06-10T14:11:29;5.38;;;3.67;;
53521;SDS011;39398;48.382;9.802;2023-06-10T14:16:36;5.47;;;4.13;;
53521;SDS011;39398;48.382;9.802;2023-06-10T14:21:42;8.20;;;4.50;;
53521;SDS011;39398;48.382;9.802;2023-06-10T14:26:43;7.65;;;3.83;;
53521;SDS011;39398;48.382;9.802;2023-06-10T14:31:46;3.65;;;3.30;;
53521;SDS011;39398;48.382;9.802;2023-06-10T14:36:48;5.38;;;4.88;;
53521;SDS011;39398;48.382;9.802;2023-06-10T14:41:50;5.28;;;3.60;;
53521;SDS011;39398;48.382;9.802;2023-06-10T14:46:53;4.85;;;4.13;;
53521;SDS011;39398;48.382;9.802;2023-06-10T14:51:54;9.27;;;6.30;;
53521;SDS011;39398;48.382;9.802;2023-06-10T14:56:56;3.65;;;2.75;;
53521;SDS011;39398;48.382;9.802;2023-06-10T15:01:59;6.03;;;4.15;;
53521;SDS011;39398;48.382;9.802;2023-06-10T15:07:01;6.43;;;3.92;;
53521;SDS011;39398;48.382;9.802;2023-06-10T15:12:02;6.38;;;5.53;;
53521;SDS011;39398;48.382;9.802;2023-06-10T15:17:05;5.03;;;3.92;;
53521;SDS011;39398;48.382;9.802;2023-06-10T15:22:07;5.55;;;4.80;;
53521;SDS011;39398;48.382;9.802;2023-06-10T15:27:09;5.63;;;5.05;;
53521;SDS011;39398;48.382;9.802;2023-06-10T15:32:12;6.55;;;4.75;;
53521;SDS011;39398;48.382;9.802;2023-06-10T15:37:19;7.97;;;5.18;;
53521;SDS011;39398;48.382;9.802;2023-06-10T15:42:21;6.65;;;5.40;;
53521;SDS011;39398;48.382;9.802;2023-06-10T15:47:24;5.57;;;4.70;;
53521;SDS011;39398;48.382;9.802;2023-06-10T15:52:26;6.78;;;5.43;;
53521;SDS011;39398;48.382;9.802;2023-06-10T15:57:27;6.47;;;4.30;;
53521;SDS011;39398;48.382;9.802;2023-06-10T16:02:30;6.50;;;4.55;;
53521;SDS011;39398;48.382;9.802;2023-06-10T16:07:36;4.28;;;3.88;;
53521;SDS011;39398;48.382;9.802;2023-06-10T16:12:38;5.38;;;3.58;;
53521;SDS011;39398;48.382;9.802;2023-06-10T16:17:41;5.28;;;4.15;;
53521;SDS011;39398;48.382;9.802;2023-06-10T16:22:43;4.45;;;4.10;;
53521;SDS011;39398;48.382;9.802;2023-06-10T16:27:45;4.63;;;4.22;;
53521;SDS011;39398;48.382;9.802;2023-06-10T16:32:48;6.15;;;3.72;;
53521;SDS011;39398;48.382;9.802;2023-06-10T16:37:50;4.32;;;3.63;;
53521;SDS011;39398;48.382;9.802;2023-06-10T16:42:51;5.10;;;4.05;;
53521;SDS011;39398;48.382;9.802;2023-06-10T16:47:54;4.05;;;3.65;;
53521;SDS011;39398;48.382;9.802;2023-06-10T16:52:56;7.15;;;4.07;;
53521;SDS011;39398;48.382;9.802;2023-06-10T16:57:57;3.72;;;3.15;;
53521;SDS011;39398;48.382;9.802;2023-06-10T17:03:00;6.32;;;3.85;;
53521;SDS011;39398;48.382;9.802;2023-06-10T17:08:02;3.90;;;3.10;;
53521;SDS011;39398;48.382;9.802;2023-06-10T17:13:04;4.07;;;3.78;;
53521;SDS011;39398;48.382;9.802;2023-06-10T17:18:07;5.00;;;3.30;;
53521;SDS011;39398;48.382;9.802;2023-06-10T17:23:09;3.22;;;2.88;;
53521;SDS011;39398;48.382;9.802;2023-06-10T17:28:11;3.90;;;3.60;;
53521;SDS011;39398;48.382;9.802;2023-06-10T17:33:14;5.28;;;4.10;;
53521;SDS011;39398;48.382;9.802;2023-06-10T17:38:16;4.15;;;3.72;;
53521;SDS011;39398;48.382;9.802;2023-06-10T17:43:17;4.03;;;3.63;;
53521;SDS011;39398;48.382;9.802;2023-06-10T17:48:20;6.18;;;4.18;;
53521;SDS011;39398;48.382;9.802;2023-06-10T17:53:22;5.45;;;4.90;;
53521;SDS011;39398;48.382;9.802;2023-06-10T17:58:24;5.28;;;4.60;;
53521;SDS011;39398;48.382;9.802;2023-06-10T18:03:27;5.40;;;4.90;;
53521;SDS011;39398;48.382;9.802;2023-06-10T18:08:29;7.60;;;4.80;;
53521;SDS011;39398;48.382;9.802;2023-06-10T18:13:30;4.75;;;4.35;;
53521;SDS011;39398;48.382;9.802;2023-06-10T18:18:34;7.40;;;4.68;;
53521;SDS011;39398;48.382;9.802;2023-06-10T18:23:35;4.68;;;4.28;;
53521;SDS011;39398;48.382;9.802;2023-06-10T18:28:37;4.65;;;4.18;;
53521;SDS011;39398;48.382;9.802;2023-06-10T18:33:40;4.32;;;3.80;;
53521;SDS011;39398;48.382;9.802;2023-06-10T18:38:42;5.28;;;4.03;;
53521;SDS011;39398;48.382;9.802;2023-06-10T18:43:44;4.00;;;3.58;;
53521;SDS011;39398;48.382;9.802;2023-06-10T18:48:46;5.82;;;4.43;;
53521;SDS011;39398;48.382;9.802;2023-06-10T18:53:48;5.43;;;4.00;;
53521;SDS011;39398;48.382;9.802;2023-06-10T18:58:50;7.85;;;3.17;;
53521;SDS011;39398;48.382;9.802;2023-06-10T19:03:53;7.70;;;3.53;;
53521;SDS011;39398;48.382;9.802;2023-06-10T19:08:55;4.63;;;4.22;;
53521;SDS011;39398;48.382;9.802;2023-06-10T19:13:56;5.05;;;4.43;;
53521;SDS011;39398;48.382;9.802;2023-06-10T19:18:59;4.75;;;4.25;;
53521;SDS011;39398;48.382;9.802;2023-06-10T19:24:01;5.43;;;4.57;;
53521;SDS011;39398;48.382;9.802;2023-06-10T19:29:03;4.82;;;4.18;;
53521;SDS011;39398;48.382;9.802;2023-06-10T19:34:06;7.80;;;5.32;;
53521;SDS011;39398;48.382;9.802;2023-06-10T19:39:08;6.82;;;4.97;;
53521;SDS011;39398;48.382;9.802;2023-06-10T19:44:10;5.75;;;5.15;;
53521;SDS011;39398;48.382;9.802;2023-06-10T19:49:13;6.22;;;5.03;;
53521;SDS011;39398;48.382;9.802;2023-06-10T19:54:15;5.60;;;5.10;;
53521;SDS011;39398;48.382;9.802;2023-06-10T19:59:16;5.90;;;5.07;;
53521;SDS011;39398;48.382;9.802;2023-06-10T20:04:19;7.07;;;5.40;;
53521;SDS011;39398;48.382;9.802;2023-06-10T20:09:21;6.57;;;5.53;;
53521;SDS011;39398;48.382;9.802;2023-06-10T20:14:23;4.45;;;3.60;;
53521;SDS011;39398;48.382;9.802;2023-06-10T20:19:26;5.78;;;5.18;;
53521;SDS011;39398;48.382;9.802;2023-06-10T20:24:27;7.18;;;5.53;;
53521;SDS011;39398;48.382;9.802;2023-06-10T20:29:29;9.50;;;5.57;;
53521;SDS011;39398;48.382;9.802;2023-06-10T20:34:32;8.32;;;5.65;;
53521;SDS011;39398;48.382;9.802;2023-06-10T20:39:35;7.53;;;5.50;;
53521;SDS011;39398;48.382;9.802;2023-06-10T20:44:37;6.95;;;5.45;;
53521;SDS011;39398;48.382;9.802;2023-06-10T20:49:40;6.10;;;5.50;;
53521;SDS011;39398;48.382;9.802;2023-06-10T20:54:41;5.95;;;5.32;;
53521;SDS011;39398;48.382;9.802;2023-06-10T20:59:43;6.13;;;5.47;;
53521;SDS011;39398;48.382;9.802;2023-06-10T21:04:46;7.50;;;5.47;;
53521;SDS011;39398;48.382;9.802;2023-06-10T21:09:48;6.80;;;5.60;;
53521;SDS011;39398;48.382;9.802;2023-06-10T21:14:49;6.72;;;5.45;;
53521;SDS011;39398;48.382;9.802;2023-06-10T21:19:52;6.35;;;5.60;;
53521;SDS011;39398;48.382;9.802;2023-06-10T21:24:54;7.30;;;5.88;;
53521;SDS011;39398;48.382;9.802;2023-06-10T21:29:56;7.75;;;5.93;;
53521;SDS011;39398;48.382;9.802;2023-06-10T21:34:59;6.57;;;5.65;;
53521;SDS011;39398;48.382;9.802;2023-06-10T21:40:01;8.25;;;5.60;;
53521;SDS011;39398;48.382;9.802;2023-06-10T21:45:03;6.72;;;6.03;;
53521;SDS011;39398;48.382;9.802;2023-06-10T21:50:07;7.88;;;5.75;;
53521;SDS011;39398;48.382;9.802;2023-06-10T21:55:09;8.80;;;6.25;;
53521;SDS011;39398;48.382;9.802;2023-06-10T22:00:12;8.07;;;6.63;;
53521;SDS011;39398;48.382;9.802;2023-06-10T22:05:16;8.80;;;7.13;;
53521;SDS011;39398;48.382;9.802;2023-06-10T22:10:18;10.23;;;6.93;;
53521;SDS011;39398;48.382;9.802;2023-06-10T22:15:20;10.98;;;6.80;;
53521;SDS011;39398;48.382;9.802;2023-06-10T22:20:23;9.43;;;7.13;;
53521;SDS011;39398;48.382;9.802;2023-06-10T22:25:25;7.63;;;6.53;;
53521;SDS011;39398;48.382;9.802;2023-06-10T22:30:26;7.95;;;6.20;;
53521;SDS011;39398;48.382;9.802;2023-06-10T22:35:29;9.32;;;7.80;;
53521;SDS011;39398;48.382;9.802;2023-06-10T22:40:31;8.57;;;7.07;;
53521;SDS011;39398;48.382;9.802;2023-06-10T22:45:33;10.40;;;7.47;;
53521;SDS011;39398;48.382;9.802;2023-06-10T22:50:36;8.90;;;7.25;;
53521;SDS011;39398;48.382;9.802;2023-06-10T22:55:37;9.20;;;7.30;;
53521;SDS011;39398;48.382;9.802;2023-06-10T23:00:39;9.75;;;7.43;;
53521;SDS011;39398;48.382;9.802;2023-06-10T23:05:42;11.80;;;8.52;;
53521;SDS011;39398;48.382;9.802;2023-06-10T23:10:44;9.45;;;7.45;;
53521;SDS011;39398;48.382;9.802;2023-06-10T23:15:46;8.60;;;7.22;;
53521;SDS011;39398;48.382;9.802;2023-06-10T23:20:49;10.82;;;8.68;;
53521;SDS011;39398;48.382;9.802;2023-06-10T23:25:51;9.50;;;7.32;;
53521;SDS011;39398;48.382;9.802;2023-06-10T23:30:52;9.68;;;8.50;;
53521;SDS011;39398;48.382;9.802;2023-06-10T23:35:56;12.07;;;8.60;;
53521;SDS011;39398;48.382;9.802;2023-06-10T23:40:58;10.70;;;7.45;;
53521;SDS011;39398;48.382;9.802;2023-06-10T23:45:59;11.48;;;8.40;;
53521;SDS011;39398;48.382;9.802;2023-06-10T23:51:02;15.30;;;10.18;;
53521;SDS011;39398;48.382;9.802;2023-06-10T23:56:04;13.98;;;9.63;;
